Time;durP1;ratioP1;P1;durP2;ratioP2;P2;SDS_P1;SDS_P2;PMS_P1;PMS_P2;Temp;Humidity;BMP_temperature;BMP_pressure;BME280_temperature;BME280_humidity;BME280_pressure;Samples;Min_cycle;Max_cycle;Signal;HPM_P1;HPM_P2
2021/09/05 00:00:33;;;;;;;25.03;15.37;;;;;;;9.92;100.00;101242.50;5018774;28;20224;-74
2021/09/05 00:03:00;;;;;;;22.13;13.53;;;;;;;10.00;100.00;101247.59;5023627;28;20207;-74
2021/09/05 00:05:26;;;;;;;22.23;14.57;;;;;;;9.95;100.00;101244.19;5021294;28;20218;-74
2021/09/05 00:07:53;;;;;;;23.10;14.17;;;;;;;9.79;100.00;101240.91;5020262;28;20593;-74
2021/09/05 00:10:19;;;;;;;22.27;13.77;;;;;;;9.83;100.00;101238.28;5018642;28;20844;-74
2021/09/05 00:12:45;;;;;;;21.03;13.30;;;;;;;9.84;100.00;101233.91;5018929;28;20230;-74
2021/09/05 00:15:14;;;;;;;21.53;13.03;;;;;;;9.82;100.00;101236.53;5021739;28;20207;-74
2021/09/05 00:17:40;;;;;;;21.60;12.70;;;;;;;9.67;100.00;101234.13;5024799;28;20239;-74
2021/09/05 00:20:09;;;;;;;22.07;13.33;;;;;;;9.73;100.00;101236.66;5020505;28;20279;-74
2021/09/05 00:22:35;;;;;;;20.80;12.00;;;;;;;9.80;100.00;101235.69;5020156;28;20288;-74
2021/09/05 00:25:04;;;;;;;22.30;12.47;;;;;;;9.71;100.00;101238.44;5024255;28;20206;-74
2021/09/05 00:27:30;;;;;;;19.27;12.47;;;;;;;9.67;100.00;101241.94;5017752;28;20686;-73
2021/09/05 00:29:57;;;;;;;18.27;12.40;;;;;;;9.64;100.00;101245.44;5024270;28;20656;-74
2021/09/05 00:32:24;;;;;;;19.90;12.20;;;;;;;9.77;100.00;101246.16;5021830;28;20235;-73
2021/09/05 00:34:51;;;;;;;18.60;12.30;;;;;;;9.77;100.00;101253.09;5022917;28;20391;-74
2021/09/05 00:37:19;;;;;;;20.77;12.20;;;;;;;9.73;100.00;101256.63;5021043;28;20725;-74
2021/09/05 00:39:46;;;;;;;18.63;11.70;;;;;;;9.74;100.00;101256.59;5005946;28;20715;-74
2021/09/05 00:42:12;;;;;;;24.87;14.23;;;;;;;9.74;100.00;101253.13;5022259;28;20294;-74
2021/09/05 00:44:39;;;;;;;20.37;12.80;;;;;;;9.67;100.00;101254.94;5005737;28;20211;-74
2021/09/05 00:47:05;;;;;;;19.40;12.33;;;;;;;9.56;100.00;101256.84;5007822;28;20316;-74
2021/09/05 00:49:33;;;;;;;22.43;13.00;;;;;;;9.45;100.00;101249.16;5018342;28;20244;-74
2021/09/05 00:51:59;;;;;;;19.70;12.67;;;;;;;9.53;100.00;101255.13;5005792;28;20313;-74
2021/09/05 00:54:26;;;;;;;19.10;13.13;;;;;;;9.70;100.00;101251.47;5020956;28;20215;-74
2021/09/05 00:56:52;;;;;;;17.03;11.40;;;;;;;9.63;100.00;101255.88;5006458;28;20213;-74
2021/09/05 00:59:22;;;;;;;19.33;12.67;;;;;;;9.37;100.00;101263.97;5022445;28;20235;-74
2021/09/05 01:01:48;;;;;;;19.50;12.30;;;;;;;9.48;100.00;101247.38;5020823;28;20218;-74
2021/09/05 01:04:15;;;;;;;18.23;12.60;;;;;;;9.52;100.00;101255.16;5024282;28;20608;-73
2021/09/05 01:06:44;;;;;;;21.93;13.20;;;;;;;9.42;100.00;101263.06;5021678;28;20216;-74
2021/09/05 01:09:11;;;;;;;19.67;14.17;;;;;;;9.37;100.00;101266.59;5023351;28;20224;-73
2021/09/05 01:11:40;;;;;;;21.03;13.43;;;;;;;9.39;100.00;101267.44;5021443;28;20230;-73
2021/09/05 01:14:09;;;;;;;22.10;14.63;;;;;;;9.34;100.00;101264.91;5023118;28;20211;-74
2021/09/05 01:16:40;;;;;;;24.83;16.20;;;;;;;9.23;100.00;101264.13;5017617;28;20205;-74
2021/09/05 01:19:39;;;;;;;23.00;13.67;;;;;;;9.25;100.00;101265.84;5006535;28;20381;-74
2021/09/05 01:22:25;;;;;;;21.20;13.93;;;;;;;9.41;100.00;101263.06;5021892;28;20202;-73
2021/09/05 01:25:31;;;;;;;23.87;14.43;;;;;;;9.36;100.00;101267.47;4960822;28;20642;-73
2021/09/05 01:28:17;;;;;;;24.10;15.20;;;;;;;9.27;100.00;101271.03;4961999;28;20288;-73
2021/09/05 01:31:03;;;;;;;22.93;13.47;;;;;;;9.33;100.00;101275.31;5005924;28;20222;-74
2021/09/05 01:33:58;;;;;;;24.40;14.13;;;;;;;9.26;100.00;101277.13;5004547;28;20723;-74
2021/09/05 01:37:00;;;;;;;22.33;13.73;;;;;;;9.23;100.00;101278.03;5020787;28;20278;-74
2021/09/05 01:39:46;;;;;;;23.10;13.53;;;;;;;9.42;100.00;101283.88;5019244;28;20718;-74
2021/09/05 01:42:31;;;;;;;21.27;12.40;;;;;;;9.33;100.00;101280.53;5019299;28;20326;-74
2021/09/05 01:45:22;;;;;;;19.67;12.43;;;;;;;9.25;100.00;101276.25;5021474;28;20287;-74
2021/09/05 01:48:07;;;;;;;22.87;13.53;;;;;;;9.35;100.00;101286.56;5003922;28;20685;-73
2021/09/05 01:50:58;;;;;;;21.50;13.33;;;;;;;9.31;100.00;101290.94;4988448;28;20293;-74
2021/09/05 01:53:44;;;;;;;21.90;13.13;;;;;;;9.22;100.00;101293.66;5022160;28;20235;-73
2021/09/05 01:56:29;;;;;;;21.60;13.07;;;;;;;9.16;100.00;101296.28;5017961;28;20202;-73
2021/09/05 01:59:24;;;;;;;22.50;13.67;;;;;;;9.22;100.00;101293.66;5019960;28;20299;-73
2021/09/05 02:02:29;;;;;;;20.37;12.60;;;;;;;9.13;100.00;101293.72;5024431;28;20212;-73
2021/09/05 02:05:16;;;;;;;21.13;12.17;;;;;;;9.01;100.00;101302.50;4982889;28;20204;-73
2021/09/05 02:08:18;;;;;;;19.93;12.70;;;;;;;8.97;100.00;101290.38;5022868;28;20220;-73
2021/09/05 02:11:06;;;;;;;18.50;11.67;;;;;;;9.03;100.00;101299.00;5005562;28;20308;-73
2021/09/05 02:13:57;;;;;;;18.60;12.07;;;;;;;8.91;100.00;101305.16;5004434;28;20209;-73
2021/09/05 02:16:46;;;;;;;18.73;12.10;;;;;;;8.88;100.00;101302.63;5008019;28;20218;-74
2021/09/05 02:19:36;;;;;;;17.80;10.83;;;;;;;8.91;100.00;101305.16;5004599;28;20235;-73
2021/09/05 02:22:21;;;;;;;19.07;11.20;;;;;;;8.86;100.00;101306.94;5018324;28;20212;-73
2021/09/05 02:25:06;;;;;;;19.93;11.83;;;;;;;8.77;100.00;101308.78;5004375;28;20216;-73
2021/09/05 02:27:53;;;;;;;18.80;11.93;;;;;;;8.85;100.00;101301.78;5020644;28;20209;-73
2021/09/05 02:30:38;;;;;;;19.00;11.40;;;;;;;8.88;100.00;101301.72;5015097;28;20312;-73
2021/09/05 02:33:17;;;;;;;17.70;10.97;;;;;;;8.81;100.00;101306.16;5005505;28;20206;-73
2021/09/05 02:36:08;;;;;;;17.77;10.67;;;;;;;8.91;100.00;101310.38;5003335;28;20199;-73
2021/09/05 02:38:54;;;;;;;17.20;10.47;;;;;;;8.87;100.00;101305.22;5020713;28;20252;-73
2021/09/05 02:41:55;;;;;;;18.50;10.27;;;;;;;8.65;100.00;101304.50;4959827;28;20355;-73
2021/09/05 02:44:41;;;;;;;19.83;9.93;;;;;;;8.74;100.00;101306.19;5014073;28;20213;-73
2021/09/05 02:47:29;;;;;;;14.70;9.57;;;;;;;8.89;100.00;101303.47;5000791;28;20207;-73
2021/09/05 02:50:23;;;;;;;15.63;9.73;;;;;;;8.78;100.00;101302.72;5000892;28;20229;-73
2021/09/05 02:53:10;;;;;;;14.73;8.93;;;;;;;8.49;100.00;101306.34;5018852;28;20209;-73
2021/09/05 02:56:12;;;;;;;14.83;9.00;;;;;;;8.63;100.00;101306.28;5004330;28;20220;-73
2021/09/05 02:58:57;;;;;;;15.80;9.60;;;;;;;8.71;100.00;101315.75;5016061;28;20224;-73
2021/09/05 03:01:45;;;;;;;15.37;8.83;;;;;;;8.71;100.00;101317.50;5001698;28;20702;-73
2021/09/05 03:04:20;;;;;;;15.53;9.87;;;;;;;8.65;100.00;101312.31;5024806;28;20219;-73
2021/09/05 03:07:10;;;;;;;15.87;9.70;;;;;;;8.71;100.00;101309.69;5017140;28;20208;-73
2021/09/05 03:10:13;;;;;;;14.97;9.13;;;;;;;8.74;100.00;101319.19;5015503;28;20219;-73
2021/09/05 03:12:42;;;;;;;16.93;10.20;;;;;;;8.57;100.00;101324.53;5016599;28;20234;-73
2021/09/05 03:15:27;;;;;;;16.00;10.10;;;;;;;8.71;100.00;101318.34;5002724;28;20765;-73
2021/09/05 03:18:13;;;;;;;15.80;10.13;;;;;;;8.68;100.00;101314.91;5018041;28;20607;-74
2021/09/05 03:20:58;;;;;;;17.27;9.73;;;;;;;8.73;100.00;101315.72;5014114;28;20815;-73
2021/09/05 03:23:42;;;;;;;18.60;11.20;;;;;;;8.82;100.00;101309.59;5006107;28;20204;-73
2021/09/05 03:26:48;;;;;;;19.63;10.97;;;;;;;8.81;100.00;101318.25;5019868;28;20314;-73
2021/09/05 03:29:43;;;;;;;14.93;10.23;;;;;;;8.78;100.00;101323.50;5018834;28;20227;-73
2021/09/05 03:32:23;;;;;;;21.70;11.23;;;;;;;8.70;100.00;101320.94;5003065;28;20212;-73
2021/09/05 03:35:15;;;;;;;19.43;11.17;;;;;;;8.84;100.00;101313.03;5021934;28;20583;-73
2021/09/05 03:37:48;;;;;;;20.30;11.60;;;;;;;8.94;100.00;101316.44;5016191;28;20278;-74
2021/09/05 03:40:33;;;;;;;20.07;11.23;;;;;;;9.04;100.00;101320.66;5001397;28;20239;-73
2021/09/05 03:43:21;;;;;;;38.47;14.23;;;;;;;8.95;100.00;101325.97;5019609;28;20216;-73
2021/09/05 03:46:17;;;;;;;29.93;15.17;;;;;;;9.06;100.00;101327.59;5000352;28;20366;-73
2021/09/05 03:49:02;;;;;;;31.93;14.63;;;;;;;9.02;100.00;101332.84;5017775;28;20280;-73
2021/09/05 03:51:28;;;;;;;29.57;14.27;;;;;;;9.16;100.00;101335.31;5002164;28;20301;-73
2021/09/05 03:53:56;;;;;;;27.47;13.37;;;;;;;9.31;100.00;101335.19;5001855;28;20581;-73
2021/09/05 03:56:22;;;;;;;24.93;12.60;;;;;;;9.33;100.00;101330.81;5005403;28;20241;-73
2021/09/05 03:58:54;;;;;;;31.50;14.13;;;;;;;9.39;100.00;101335.09;5001708;28;20664;-73
2021/09/05 04:01:24;;;;;;;26.00;13.57;;;;;;;9.43;100.00;101339.41;5000507;28;20270;-73
2021/09/05 04:04:04;;;;;;;24.23;13.63;;;;;;;9.41;100.00;101341.16;5003585;28;20561;-73
2021/09/05 04:06:30;;;;;;;27.63;14.23;;;;;;;9.55;100.00;101347.09;5006833;28;20314;-73
2021/09/05 04:09:01;;;;;;;32.90;14.50;;;;;;;9.52;100.00;101343.66;5025039;28;20226;-73
2021/09/05 04:11:27;;;;;;;32.73;14.20;;;;;;;9.41;100.00;101343.75;5024904;28;20229;-73
2021/09/05 04:13:55;;;;;;;27.50;13.50;;;;;;;9.46;100.00;101345.44;5021389;28;20207;-73
2021/09/05 04:16:21;;;;;;;32.07;14.67;;;;;;;9.60;100.00;101344.44;5025501;28;20739;-73
2021/09/05 04:18:47;;;;;;;32.70;14.07;;;;;;;9.69;100.00;101346.06;5024195;28;20207;-73
2021/09/05 04:21:14;;;;;;;29.30;13.90;;;;;;;9.72;100.00;101346.91;5025192;28;20217;-73
2021/09/05 04:23:40;;;;;;;33.03;14.47;;;;;;;9.81;100.00;101345.94;5020952;28;20214;-73
2021/09/05 04:26:06;;;;;;;32.60;14.47;;;;;;;9.83;100.00;101354.59;5021940;28;21029;-73
2021/09/05 04:28:33;;;;;;;36.27;16.03;;;;;;;9.88;100.00;101349.34;5024348;28;20771;-73
2021/09/05 04:31:00;;;;;;;29.67;14.60;;;;;;;9.90;100.00;101358.84;5021982;28;20250;-73
2021/09/05 04:33:27;;;;;;;29.10;14.33;;;;;;;10.01;100.00;101357.00;5022470;28;20693;-73
2021/09/05 04:35:53;;;;;;;36.57;15.87;;;;;;;10.08;100.00;101352.56;5022266;28;20216;-73
2021/09/05 04:38:20;;;;;;;33.77;15.80;;;;;;;10.09;100.00;101348.22;5024563;28;20640;-73
2021/09/05 04:40:46;;;;;;;34.93;15.53;;;;;;;10.10;100.00;101349.94;5020985;28;20219;-74
2021/09/05 04:43:12;;;;;;;32.67;14.67;;;;;;;10.08;100.00;101351.69;5022320;28;20204;-73
2021/09/05 04:45:39;;;;;;;31.13;13.43;;;;;;;10.16;100.00;101347.25;5020695;28;20318;-73
2021/09/05 04:48:06;;;;;;;36.70;14.00;;;;;;;10.24;100.00;101358.44;5023315;28;20212;-73
2021/09/05 04:50:33;;;;;;;28.40;13.17;;;;;;;10.28;100.00;101354.91;5022492;28;20220;-73
2021/09/05 04:52:59;;;;;;;33.53;13.77;;;;;;;10.30;100.00;101360.09;5020548;28;20228;-73
2021/09/05 04:55:26;;;;;;;26.77;12.80;;;;;;;10.33;100.00;101360.09;5023717;28;20238;-73
2021/09/05 04:57:52;;;;;;;20.93;11.90;;;;;;;10.38;100.00;101363.50;5020598;28;20200;-74
2021/09/05 05:00:18;;;;;;;26.60;13.00;;;;;;;10.40;100.00;101366.97;5022763;28;20240;-73
2021/09/05 05:02:45;;;;;;;21.63;12.33;;;;;;;10.40;100.00;101366.97;5021347;28;20867;-73
2021/09/05 05:05:13;;;;;;;24.47;12.07;;;;;;;10.33;100.00;101371.38;5020941;28;20211;-73
2021/09/05 05:07:39;;;;;;;25.80;11.53;;;;;;;10.32;100.00;101377.47;5019839;28;20205;-73
2021/09/05 05:10:07;;;;;;;27.97;11.83;;;;;;;10.34;100.00;101380.94;5020385;28;20227;-73
2021/09/05 05:12:33;;;;;;;32.03;13.20;;;;;;;10.40;100.00;101385.22;5023259;28;20221;-73
2021/09/05 05:14:59;;;;;;;24.43;13.57;;;;;;;10.45;100.00;101377.31;5020945;28;20708;-73
2021/09/05 05:17:26;;;;;;;22.20;13.07;;;;;;;10.46;100.00;101392.94;5023327;28;20303;-73
2021/09/05 05:19:52;;;;;;;24.10;13.27;;;;;;;10.55;100.00;101389.34;5019762;28;20224;-73
2021/09/05 05:22:20;;;;;;;24.80;13.70;;;;;;;10.56;100.00;101394.53;5023772;28;20215;-73
2021/09/05 05:24:46;;;;;;;26.80;14.63;;;;;;;10.62;100.00;101390.97;5020479;28;20218;-74
2021/09/05 05:27:12;;;;;;;26.60;14.23;;;;;;;10.74;100.00;101382.97;5022993;28;20213;-73
2021/09/05 05:29:39;;;;;;;29.17;15.00;;;;;;;10.71;100.00;101397.81;5021446;28;20231;-73
2021/09/05 05:32:06;;;;;;;28.67;14.50;;;;;;;10.62;100.00;101396.19;5021313;28;20224;-74
2021/09/05 05:34:33;;;;;;;30.30;14.37;;;;;;;10.70;100.00;101398.72;5022066;28;20883;-73
2021/09/05 05:37:03;;;;;;;31.10;15.93;;;;;;;10.75;100.00;101402.13;5023497;28;20207;-74
2021/09/05 05:39:31;;;;;;;28.83;15.53;;;;;;;10.81;100.00;101402.00;5021959;28;20228;-74
2021/09/05 05:41:58;;;;;;;27.83;15.43;;;;;;;10.82;100.00;101402.88;5017577;28;20668;-74
2021/09/05 05:44:24;;;;;;;27.17;16.17;;;;;;;10.79;100.00;101403.78;5021724;28;20291;-73
2021/09/05 05:46:51;;;;;;;27.30;16.07;;;;;;;10.85;100.00;101411.50;5019592;28;20217;-74
2021/09/05 05:49:17;;;;;;;28.73;16.07;;;;;;;10.87;100.00;101406.25;5023524;28;20287;-73
2021/09/05 05:51:44;;;;;;;29.90;16.00;;;;;;;10.93;100.00;101416.63;5020196;28;20217;-73
2021/09/05 05:54:14;;;;;;;28.07;15.80;;;;;;;10.96;100.00;101419.19;5019400;28;20213;-74
2021/09/05 05:56:43;;;;;;;30.50;16.83;;;;;;;10.88;100.00;101421.91;5022753;28;20215;-73
2021/09/05 05:59:09;;;;;;;27.00;15.37;;;;;;;10.98;100.00;101420.03;5017997;28;20231;-73
2021/09/05 06:01:36;;;;;;;27.50;16.10;;;;;;;11.05;100.00;101426.03;5023534;28;20232;-74
2021/09/05 06:04:03;;;;;;;28.00;16.07;;;;;;;11.13;100.00;101418.91;5019345;28;20257;-73
2021/09/05 06:06:29;;;;;;;28.07;16.20;;;;;;;11.17;100.00;101423.22;5021650;28;20211;-74
2021/09/05 06:08:56;;;;;;;28.17;16.07;;;;;;;11.21;100.00;101432.72;5019020;28;20783;-74
2021/09/05 06:11:22;;;;;;;30.50;16.83;;;;;;;11.25;100.00;101431.78;5022837;28;20584;-75
2021/09/05 06:13:50;;;;;;;27.23;16.57;;;;;;;11.29;100.00;101427.38;5019886;28;20214;-74
2021/09/05 06:16:16;;;;;;;27.53;16.00;;;;;;;11.39;100.00;101442.00;5023378;28;20269;-74
2021/09/05 06:18:43;;;;;;;27.93;16.03;;;;;;;11.48;100.00;101443.59;5020349;28;20213;-73
2021/09/05 06:21:09;;;;;;;25.40;15.80;;;;;;;11.60;100.00;101442.53;5019801;28;20302;-73
2021/09/05 06:23:36;;;;;;;24.17;15.77;;;;;;;11.60;100.00;101451.22;5018188;28;20227;-73
2021/09/05 06:26:02;;;;;;;24.10;14.60;;;;;;;11.59;100.00;101451.25;5002553;28;20200;-73
2021/09/05 06:28:29;;;;;;;25.63;14.60;;;;;;;11.55;100.00;101456.50;5022291;28;20208;-73
2021/09/05 06:30:56;;;;;;;24.27;14.17;;;;;;;11.76;100.00;101454.41;5016931;28;20223;-74
2021/09/05 06:33:23;;;;;;;23.87;14.53;;;;;;;11.69;100.00;101448.44;5021746;28;20820;-73
2021/09/05 06:35:49;;;;;;;21.90;14.40;;;;;;;11.86;100.00;101457.75;5018308;28;20223;-73
2021/09/05 06:38:16;;;;;;;21.03;13.60;;;;;;;11.93;100.00;101448.94;5021134;28;20206;-73
2021/09/05 06:40:42;;;;;;;23.90;14.27;;;;;;;11.97;100.00;101455.81;5019271;28;20238;-73
2021/09/05 06:43:08;;;;;;;21.77;13.50;;;;;;;12.11;100.00;101450.34;5016078;28;20688;-73
2021/09/05 06:45:35;;;;;;;19.03;13.10;;;;;;;12.09;100.00;101463.44;5022842;28;20291;-73
2021/09/05 06:48:03;;;;;;;21.43;13.63;;;;;;;11.99;100.00;101455.78;5017687;28;20208;-73
2021/09/05 06:50:30;;;;;;;20.53;13.70;;;;;;;12.00;100.00;101453.16;5004469;28;20236;-73
2021/09/05 06:52:56;;;;;;;21.80;14.30;;;;;;;11.99;100.00;101459.25;5017268;28;20219;-73
2021/09/05 06:55:22;;;;;;;21.63;13.57;;;;;;;11.99;100.00;101461.88;5021904;28;20295;-73
2021/09/05 06:57:49;;;;;;;25.60;15.03;;;;;;;11.96;100.00;101456.72;5018619;28;20205;-73
2021/09/05 07:00:16;;;;;;;22.97;14.13;;;;;;;12.03;100.00;101467.91;5020403;28;20247;-73
2021/09/05 07:02:42;;;;;;;22.57;14.73;;;;;;;12.15;100.00;101465.06;5017835;28;20310;-73
2021/09/05 07:05:11;;;;;;;21.20;14.20;;;;;;;12.28;100.00;101474.41;5018649;28;20218;-73
2021/09/05 07:07:37;;;;;;;21.53;13.37;;;;;;;12.40;100.00;101469.78;5022365;28;20908;-73
2021/09/05 07:10:04;;;;;;;27.80;16.17;;;;;;;12.54;100.00;101475.63;5017441;28;20310;-73
2021/09/05 07:12:31;;;;;;;21.70;14.10;;;;;;;12.43;100.00;101470.59;5020042;28;20246;-73
2021/09/05 07:14:57;;;;;;;25.03;15.43;;;;;;;12.41;100.00;101477.63;5015288;28;20219;-73
2021/09/05 07:17:24;;;;;;;24.40;15.37;;;;;;;12.55;100.00;101479.09;5020593;28;20287;-73
2021/09/05 07:19:50;;;;;;;26.67;15.70;;;;;;;12.60;100.00;101487.72;5018623;28;20902;-73
2021/09/05 07:22:18;;;;;;;24.47;14.97;;;;;;;12.63;100.00;101487.66;5022702;28;20295;-73
2021/09/05 07:24:44;;;;;;;22.47;15.03;;;;;;;12.77;100.00;101487.34;5018183;28;20241;-73
2021/09/05 07:27:10;;;;;;;28.37;15.63;;;;;;;12.84;100.00;101495.03;5020133;28;20210;-73
2021/09/05 07:29:37;;;;;;;24.33;15.67;;;;;;;13.00;100.00;101498.19;5017705;28;20223;-73
2021/09/05 07:32:04;;;;;;;22.80;14.97;;;;;;;13.15;100.00;101503.97;5017176;28;20560;-73
2021/09/05 07:34:30;;;;;;;23.83;16.20;;;;;;;13.27;100.00;101495.81;5020842;28;20203;-73
2021/09/05 07:36:57;;;;;;;24.87;15.80;;;;;;;13.30;100.00;101493.13;5019267;28;20280;-73
2021/09/05 07:39:24;;;;;;;25.93;15.20;;;;;;;13.30;100.00;101507.97;5018082;28;20231;-73
2021/09/05 07:41:51;;;;;;;22.23;14.70;;;;;;;13.37;100.00;101512.22;5022833;28;20248;-74
2021/09/05 07:44:17;;;;;;;24.77;15.20;;;;;;;13.40;100.00;101513.00;5025400;28;20212;-73
2021/09/05 07:46:44;;;;;;;21.00;14.00;;;;;;;13.52;100.00;101517.06;5026516;28;20862;-73
2021/09/05 07:49:10;;;;;;;21.40;14.33;;;;;;;13.42;100.00;101512.94;5025411;28;20248;-73
2021/09/05 07:51:37;;;;;;;19.73;13.07;;;;;;;13.57;100.00;101515.22;5022280;28;20222;-73
2021/09/05 07:54:03;;;;;;;22.03;14.40;;;;;;;13.58;100.00;101519.56;5019445;28;20227;-73
2021/09/05 07:56:31;;;;;;;21.73;14.03;;;;;;;13.60;100.00;101523.00;5021566;28;20211;-73
2021/09/05 07:58:57;;;;;;;24.33;13.97;;;;;;;13.67;100.00;101522.84;5004809;28;20231;-74
2021/09/05 08:01:24;;;;;;;23.10;14.47;;;;;;;13.87;100.00;101524.97;5025085;28;20206;-73
2021/09/05 08:03:51;;;;;;;22.60;13.93;;;;;;;14.07;100.00;101530.56;5018928;28;20261;-73
2021/09/05 08:06:17;;;;;;;21.57;13.97;;;;;;;14.17;100.00;101521.53;5022237;28;20202;-73
2021/09/05 08:08:44;;;;;;;22.33;13.70;;;;;;;14.05;100.00;101537.59;5021610;28;20242;-74
2021/09/05 08:11:10;;;;;;;19.27;13.23;;;;;;;14.12;100.00;101536.53;5005652;28;20207;-74
2021/09/05 08:13:38;;;;;;;18.73;12.87;;;;;;;14.13;100.00;101537.41;5021173;28;20227;-73
2021/09/05 08:16:04;;;;;;;20.37;14.40;;;;;;;14.34;100.00;101536.81;5022221;28;20211;-74
2021/09/05 08:18:35;;;;;;;20.73;13.20;;;;;;;14.46;100.00;101538.25;5025315;28;20204;-74
2021/09/05 08:21:03;;;;;;;19.10;13.27;;;;;;;14.32;100.00;101545.66;5021900;28;20596;-73
2021/09/05 08:23:30;;;;;;;21.37;13.77;;;;;;;14.29;100.00;101548.34;5023094;28;20538;-74
2021/09/05 08:25:56;;;;;;;19.90;13.47;;;;;;;14.42;100.00;101541.00;5018912;28;20207;-73
2021/09/05 08:28:23;;;;;;;20.20;14.37;;;;;;;14.50;100.00;101545.13;5025858;28;20215;-73
2021/09/05 08:30:51;;;;;;;21.83;13.40;;;;;;;14.67;100.00;101546.44;5020756;28;20238;-73
2021/09/05 08:33:18;;;;;;;19.63;13.93;;;;;;;14.68;98.39;101554.28;5024627;28;20223;-73
2021/09/05 08:35:45;;;;;;;21.27;14.33;;;;;;;14.85;99.90;101545.94;5019783;28;20323;-73
2021/09/05 08:38:12;;;;;;;21.43;13.53;;;;;;;14.87;97.44;101545.88;5022144;28;20225;-73
2021/09/05 08:40:41;;;;;;;19.87;12.83;;;;;;;14.98;100.00;101553.44;5019235;28;20595;-73
2021/09/05 08:43:09;;;;;;;21.13;13.80;;;;;;;15.05;100.00;101547.09;5021118;28;20290;-73
2021/09/05 08:45:36;;;;;;;21.03;14.43;;;;;;;15.08;96.52;101547.84;5020318;28;20203;-73
2021/09/05 08:48:05;;;;;;;19.87;13.43;;;;;;;15.18;97.53;101545.81;5023258;28;20214;-73
2021/09/05 08:50:33;;;;;;;21.53;13.33;;;;;;;15.31;96.04;101548.94;5022696;28;20251;-73
2021/09/05 08:53:00;;;;;;;20.20;13.67;;;;;;;15.34;95.19;101557.56;5005957;28;20227;-73
2021/09/05 08:55:27;;;;;;;20.33;13.30;;;;;;;15.49;95.91;101550.09;5027086;28;20196;-73
2021/09/05 08:57:53;;;;;;;20.63;13.77;;;;;;;15.60;95.71;101544.50;5019238;28;20294;-73
2021/09/05 09:00:20;;;;;;;19.00;13.47;;;;;;;15.70;92.86;101552.03;5022820;28;20242;-73
2021/09/05 09:02:49;;;;;;;18.43;12.93;;;;;;;15.79;93.02;101558.78;5023016;28;20722;-73
2021/09/05 09:05:29;;;;;;;21.47;13.90;;;;;;;16.02;92.97;101554.53;5019600;28;20591;-73
2021/09/05 09:07:58;;;;;;;19.73;13.43;;;;;;;16.20;91.44;101553.03;5022100;28;20688;-73
2021/09/05 09:10:25;;;;;;;19.43;12.47;;;;;;;16.34;92.39;101552.53;5020649;28;20248;-73
2021/09/05 09:12:52;;;;;;;19.33;13.27;;;;;;;16.40;88.41;101562.88;5022075;28;20218;-73
2021/09/05 09:15:23;;;;;;;18.97;13.27;;;;;;;16.41;88.91;101551.41;5020587;28;20207;-73
2021/09/05 09:17:51;;;;;;;20.50;13.93;;;;;;;16.47;90.68;101546.78;5023726;28;20218;-73
2021/09/05 09:20:32;;;;;;;18.67;12.70;;;;;;;16.57;88.63;101551.72;5019626;28;20660;-73
2021/09/05 09:23:06;;;;;;;21.33;13.70;;;;;;;16.59;87.01;101549.91;5020415;28;20669;-73
2021/09/05 09:25:33;;;;;;;21.37;14.00;;;;;;;16.68;89.94;101546.94;5018228;28;20208;-73
2021/09/05 09:27:59;;;;;;;19.90;13.43;;;;;;;16.77;88.12;101541.31;5017380;28;20208;-73
2021/09/05 09:30:54;;;;;;;19.17;12.90;;;;;;;16.90;87.57;101535.63;5023731;28;20223;-74
2021/09/05 09:33:22;;;;;;;19.83;12.20;;;;;;;17.03;88.70;101539.50;5019447;28;20674;-73
2021/09/05 09:35:52;;;;;;;19.67;12.33;;;;;;;17.31;87.05;101538.44;5022019;28;20208;-73
2021/09/05 09:38:19;;;;;;;20.03;12.63;;;;;;;17.57;84.84;101540.00;5020503;28;20238;-73
2021/09/05 09:41:33;;;;;;;18.10;12.77;;;;;;;17.58;83.57;101537.28;5015025;28;20253;-73
2021/09/05 09:44:01;;;;;;;20.30;11.83;;;;;;;17.60;82.95;101540.72;5018478;28;20634;-73
2021/09/05 09:46:30;;;;;;;17.00;11.53;;;;;;;17.68;82.57;101537.78;5018311;28;20579;-73
2021/09/05 09:48:58;;;;;;;17.40;11.93;;;;;;;17.86;83.09;101532.69;5020642;28;20231;-73
2021/09/05 09:51:26;;;;;;;16.73;10.80;;;;;;;18.04;82.89;101541.59;5016523;28;20204;-73
2021/09/05 09:53:54;;;;;;;16.47;11.33;;;;;;;18.10;80.18;101536.94;5018371;28;20306;-73
2021/09/05 09:56:21;;;;;;;15.47;10.37;;;;;;;18.22;80.40;101532.03;5019997;28;20578;-73
2021/09/05 09:58:50;;;;;;;13.23;10.17;;;;;;;18.31;80.84;101534.25;5016355;28;20200;-73
2021/09/05 10:08:55;;;;;;;15.03;10.00;;;;;;;18.85;77.50;101534.50;5003187;28;20188;-71
2021/09/05 10:11:23;;;;;;;18.07;11.53;;;;;;;18.99;79.64;101532.06;5002928;28;20209;-71
2021/09/05 10:13:50;;;;;;;14.07;10.13;;;;;;;19.10;78.63;101529.78;5016341;28;20228;-72
2021/09/05 10:16:16;;;;;;;14.27;10.13;;;;;;;19.22;75.44;101538.91;5023496;28;20204;-72
2021/09/05 10:18:46;;;;;;;15.30;10.13;;;;;;;19.39;76.90;101531.97;5025431;28;20208;-71
2021/09/05 10:21:15;;;;;;;15.40;10.50;;;;;;;19.49;76.67;101523.50;5023121;28;20208;-72
2021/09/05 10:23:47;;;;;;;13.43;9.93;;;;;;;19.58;75.99;101518.69;5015098;28;20230;-72
2021/09/05 10:26:16;;;;;;;14.67;9.83;;;;;;;19.68;71.49;101525.22;5022774;28;20578;-72
2021/09/05 10:28:44;;;;;;;13.03;9.07;;;;;;;19.77;70.03;101530.09;5017092;28;20314;-72
2021/09/05 10:31:13;;;;;;;14.13;8.63;;;;;;;19.87;72.18;101522.53;5021841;28;20208;-71
2021/09/05 10:33:42;;;;;;;15.20;9.80;;;;;;;20.01;69.26;101521.81;5011637;28;20220;-72
2021/09/05 10:36:11;;;;;;;13.53;10.10;;;;;;;20.11;69.21;101522.22;5025709;28;20203;-71
2021/09/05 10:38:40;;;;;;;16.37;11.30;;;;;;;20.15;69.99;101519.31;5016935;28;20259;-72
2021/09/05 10:41:16;;;;;;;11.10;7.77;;;;;;;20.20;66.63;101524.38;5017827;28;20704;-72
2021/09/05 10:44:15;;;;;;;13.70;8.83;;;;;;;20.24;67.72;101513.56;5014930;28;20230;-72
2021/09/05 10:46:47;;;;;;;14.00;7.70;;;;;;;20.38;67.03;101526.03;5018477;28;20203;-72
2021/09/05 10:49:38;;;;;;;13.47;8.07;;;;;;;20.38;64.92;101519.88;5022626;28;20215;-72
2021/09/05 10:52:05;;;;;;;12.47;8.30;;;;;;;20.42;66.10;101516.13;4986180;28;20264;-72
2021/09/05 10:54:32;;;;;;;11.63;8.20;;;;;;;20.51;65.01;101518.31;5021749;28;20222;-71
2021/09/05 10:57:01;;;;;;;11.83;8.53;;;;;;;20.65;63.27;101517.59;5020128;28;20196;-72
2021/09/05 10:59:33;;;;;;;12.90;8.07;;;;;;;20.71;66.01;101517.25;5020938;28;20211;-73
2021/09/05 11:02:02;;;;;;;10.57;6.97;;;;;;;20.77;64.20;101522.22;5024104;28;20196;-72
2021/09/05 11:04:30;;;;;;;10.17;7.57;;;;;;;20.85;63.77;101520.94;5016861;28;20685;-72
2021/09/05 11:07:31;;;;;;;11.00;7.87;;;;;;;20.92;63.06;101515.22;5018474;28;20204;-72
2021/09/05 11:09:59;;;;;;;13.43;8.43;;;;;;;21.13;62.09;101520.25;5018450;28;20516;-71
2021/09/05 11:12:40;;;;;;;11.10;7.80;;;;;;;21.11;61.91;101512.38;5023474;28;20756;-72
2021/09/05 11:15:14;;;;;;;11.17;7.63;;;;;;;21.18;61.77;101512.91;5021266;28;20234;-72
2021/09/05 11:17:41;;;;;;;11.10;8.07;;;;;;;21.34;63.89;101504.94;5025791;28;20199;-72
2021/09/05 11:20:09;;;;;;;16.60;7.97;;;;;;;21.40;64.13;101509.84;5023876;28;20200;-72
2021/09/05 11:22:41;;;;;;;9.63;7.40;;;;;;;21.48;63.10;101510.31;5023357;28;20231;-72
2021/09/05 11:25:24;;;;;;;10.53;7.10;;;;;;;21.52;59.21;101514.47;5028969;28;20299;-71
2021/09/05 11:28:06;;;;;;;11.10;7.17;;;;;;;21.61;61.46;101517.56;5026633;28;20668;-72
2021/09/05 11:30:36;;;;;;;10.20;7.30;;;;;;;21.63;61.01;101520.97;5016178;28;20294;-71
2021/09/05 11:33:06;;;;;;;9.17;6.93;;;;;;;21.65;58.93;101524.38;5004260;28;20243;-72
2021/09/05 11:35:42;;;;;;;9.67;7.37;;;;;;;21.73;60.05;101522.16;5001446;28;20219;-72
2021/09/05 11:38:11;;;;;;;9.97;7.23;;;;;;;21.68;59.15;101529.50;4993617;28;20223;-71